FMNM/MJN METAR and TAF weather

Enter ICAO airport designator
Station Type Date Time Source
FMNM METAR 2018/06/25 17:00 UTC NOAA

FMNM 251700Z 30006KT 9999 FEW020 23/21 Q1016 NOSIG


Station Type Date Time Source
FMNM Decoded METAR 2018/06/25 17:00 UTC NOAA

Majunga, Madagascar (FMNM) 15-40S 046-21E 18M
Jun 25, 2018 - 01:00 PM EDT / 2018.06.25 1700 UTC
Wind: from the WNW (300 degrees) at 7 MPH (6 KT):0
Visibility: greater than 7 mile(s):0
Sky conditions: mostly clear
Temperature: 73 F (23 C)
Dew Point: 69 F (21 C)
Relative Humidity: 88%
Pressure (altimeter): 30.00 in. Hg (1016 hPa)
ob: FMNM 251700Z 30006KT 9999 FEW020 23/21 Q1016 NOSIG
cycle: 17

Station Type Date Time Source
FMNM TAF 2018/06/25 18:03 UTC NOAA

TAF FMNM 251700Z 2518/2618 14008KT 9999 FEW023


Example: see airport list